Terminal Aerodrome Forecast
Issued by NWS

Home | Current Version | Previous Version | Text Only | Print | Product List | Glossary Off
Versions: 1 2 3 4 5 6 7 8 9 10 11 12 13 14 15 16 17 18

000
FTUS43 KMPX 220600 CCA
TAFAXN
TAF COR
KAXN 220622Z 2206/2306 VRB02KT 4SM BR SCT002
      TEMPO 2206/2209 1SM BR BKN002
     FM220900 00000KT 3SM BR FEW001
      TEMPO 2209/2213 1/2SM FG BKN001
     FM221400 23008KT P6SM SKC
     FM230000 17005KT P6SM SKC=

USA.gov is the U.S. government's official web portal to all federal, state and local government web resources and services.